sensor_id;sensor_type;location;lat;lon;timestamp;pressure;altitude;pressure_sealevel;temperature;humidity
72285;BME280;60220;53.552;10.092;2024-01-06T00:01:13;100201.56;;;1.56;100.00
72285;BME280;60220;53.552;10.092;2024-01-06T00:03:40;100210.19;;;1.57;100.00
72285;BME280;60220;53.552;10.092;2024-01-06T00:06:07;100208.72;;;1.76;100.00
72285;BME280;60220;53.552;10.092;2024-01-06T00:08:35;100215.69;;;1.81;100.00
72285;BME280;60220;53.552;10.092;2024-01-06T00:11:04;100227.19;;;0.89;100.00
72285;BME280;60220;53.552;10.092;2024-01-06T00:13:30;100222.16;;;1.49;100.00
72285;BME280;60220;53.552;10.092;2024-01-06T00:16:00;100215.19;;;2.09;100.00
72285;BME280;60220;53.552;10.092;2024-01-06T00:18:27;100226.25;;;1.36;100.00
72285;BME280;60220;53.552;10.092;2024-01-06T00:20:53;100218.88;;;1.62;100.00
72285;BME280;60220;53.552;10.092;2024-01-06T00:23:20;100220.88;;;1.22;100.00
72285;BME280;60220;53.552;10.092;2024-01-06T00:25:50;100212.38;;;1.91;100.00
72285;BME280;60220;53.552;10.092;2024-01-06T00:28:17;100227.53;;;1.64;100.00
72285;BME280;60220;53.552;10.092;2024-01-06T00:30:44;100217.63;;;1.94;100.00
72285;BME280;60220;53.552;10.092;2024-01-06T00:33:11;100208.66;;;1.71;100.00
72285;BME280;60220;53.552;10.092;2024-01-06T00:35:41;100217.66;;;1.97;100.00
72285;BME280;60220;53.552;10.092;2024-01-06T00:38:08;100218.84;;;1.59;100.00
72285;BME280;60220;53.552;10.092;2024-01-06T00:40:37;100239.47;;;1.02;100.00
72285;BME280;60220;53.552;10.092;2024-01-06T00:43:05;100227.22;;;1.43;100.00
72285;BME280;60220;53.552;10.092;2024-01-06T00:45:32;100232.63;;;1.58;100.00
72285;BME280;60220;53.552;10.092;2024-01-06T00:47:58;100227.69;;;1.76;100.00
72285;BME280;60220;53.552;10.092;2024-01-06T00:50:25;100217.53;;;1.88;100.00
72285;BME280;60220;53.552;10.092;2024-01-06T00:52:51;100231.84;;;1.63;100.00
72285;BME280;60220;53.552;10.092;2024-01-06T00:55:18;100230.06;;;1.59;100.00
72285;BME280;60220;53.552;10.092;2024-01-06T00:57:45;100234.63;;;1.77;100.00
72285;BME280;60220;53.552;10.092;2024-01-06T01:00:13;100240.53;;;1.70;100.00
72285;BME280;60220;53.552;10.092;2024-01-06T01:02:40;100236.59;;;1.93;100.00
72285;BME280;60220;53.552;10.092;2024-01-06T01:05:07;100237.03;;;2.28;100.00
72285;BME280;60220;53.552;10.092;2024-01-06T01:07:34;100243.66;;;2.06;100.00
72285;BME280;60220;53.552;10.092;2024-01-06T01:10:01;100235.19;;;2.20;100.00
72285;BME280;60220;53.552;10.092;2024-01-06T01:12:28;100250.16;;;1.77;100.00
72285;BME280;60220;53.552;10.092;2024-01-06T01:14:54;100253.84;;;1.94;100.00
72285;BME280;60220;53.552;10.092;2024-01-06T01:17:23;100264.81;;;1.77;100.00
72285;BME280;60220;53.552;10.092;2024-01-06T01:19:52;100262.66;;;2.07;100.00
72285;BME280;60220;53.552;10.092;2024-01-06T01:22:20;100264.81;;;1.77;100.00
72285;BME280;60220;53.552;10.092;2024-01-06T01:24:46;100266.47;;;1.74;100.00
72285;BME280;60220;53.552;10.092;2024-01-06T01:27:13;100263.34;;;1.95;100.00
72285;BME280;60220;53.552;10.092;2024-01-06T01:29:40;100272.00;;;1.97;100.00
72285;BME280;60220;53.552;10.092;2024-01-06T01:32:06;100276.50;;;2.10;100.00
72285;BME280;60220;53.552;10.092;2024-01-06T01:34:34;100274.22;;;2.33;100.00
72285;BME280;60220;53.552;10.092;2024-01-06T01:37:01;100283.09;;;1.89;100.00
72285;BME280;60220;53.552;10.092;2024-01-06T01:39:27;100287.97;;;1.69;100.00
72285;BME280;60220;53.552;10.092;2024-01-06T01:41:57;100296.59;;;1.68;100.00
72285;BME280;60220;53.552;10.092;2024-01-06T01:44:23;100301.56;;;1.56;100.00
72285;BME280;60220;53.552;10.092;2024-01-06T01:46:50;100284.03;;;1.40;100.00
72285;BME280;60220;53.552;10.092;2024-01-06T01:49:17;100286.72;;;2.01;100.00
72285;BME280;60220;53.552;10.092;2024-01-06T01:51:45;100282.31;;;2.59;100.00
72285;BME280;60220;53.552;10.092;2024-01-06T01:54:12;100293.53;;;1.93;100.00
72285;BME280;60220;53.552;10.092;2024-01-06T01:56:41;100294.88;;;1.70;100.00
72285;BME280;60220;53.552;10.092;2024-01-06T01:59:11;100296.19;;;1.44;100.00
72285;BME280;60220;53.552;10.092;2024-01-06T02:01:39;100288.25;;;1.87;100.00
72285;BME280;60220;53.552;10.092;2024-01-06T02:04:06;100298.38;;;1.72;100.00
72285;BME280;60220;53.552;10.092;2024-01-06T02:06:33;100285.19;;;2.15;100.00
72285;BME280;60220;53.552;10.092;2024-01-06T02:09:01;100292.97;;;2.14;100.00
72285;BME280;60220;53.552;10.092;2024-01-06T02:11:28;100309.50;;;1.66;100.00
72285;BME280;60220;53.552;10.092;2024-01-06T02:13:55;100306.53;;;1.99;100.00
72285;BME280;60220;53.552;10.092;2024-01-06T02:16:21;100312.97;;;1.68;100.00
72285;BME280;60220;53.552;10.092;2024-01-06T02:18:48;100305.56;;;1.91;100.00
72285;BME280;60220;53.552;10.092;2024-01-06T02:21:15;100306.28;;;1.83;100.00
72285;BME280;60220;53.552;10.092;2024-01-06T02:23:43;100302.50;;;2.20;100.00
72285;BME280;60220;53.552;10.092;2024-01-06T02:26:10;100310.31;;;2.23;100.00
72285;BME280;60220;53.552;10.092;2024-01-06T02:28:38;100317.84;;;2.06;100.00
72285;BME280;60220;53.552;10.092;2024-01-06T02:31:05;100326.38;;;2.00;100.00
72285;BME280;60220;53.552;10.092;2024-01-06T02:33:31;100332.94;;;1.77;100.00
72285;BME280;60220;53.552;10.092;2024-01-06T02:35:58;100327.00;;;2.43;100.00
72285;BME280;60220;53.552;10.092;2024-01-06T02:38:25;100330.97;;;2.20;100.00
72285;BME280;60220;53.552;10.092;2024-01-06T02:40:53;100324.56;;;1.93;100.00
72285;BME280;60220;53.552;10.092;2024-01-06T02:43:19;100321.31;;;2.06;100.00
72285;BME280;60220;53.552;10.092;2024-01-06T02:45:47;100334.88;;;1.90;100.00
72285;BME280;60220;53.552;10.092;2024-01-06T02:48:14;100331.78;;;2.15;100.00
72285;BME280;60220;53.552;10.092;2024-01-06T02:50:40;100338.53;;;1.50;100.00
72285;BME280;60220;53.552;10.092;2024-01-06T02:53:09;100337.59;;;1.99;100.00
72285;BME280;60220;53.552;10.092;2024-01-06T02:55:38;100331.50;;;1.94;100.00
72285;BME280;60220;53.552;10.092;2024-01-06T02:58:08;100337.31;;;1.28;100.00
72285;BME280;60220;53.552;10.092;2024-01-06T03:00:35;100346.38;;;1.53;100.00
72285;BME280;60220;53.552;10.092;2024-01-06T03:03:01;100344.66;;;1.54;100.00
72285;BME280;60220;53.552;10.092;2024-01-06T03:05:28;100348.16;;;1.11;100.00
72285;BME280;60220;53.552;10.092;2024-01-06T03:07:54;100347.19;;;1.52;100.00
72285;BME280;60220;53.552;10.092;2024-01-06T03:10:21;100352.06;;;1.36;100.00
72285;BME280;60220;53.552;10.092;2024-01-06T03:12:48;100345.31;;;1.96;100.00
72285;BME280;60220;53.552;10.092;2024-01-06T03:15:16;100343.28;;;0.81;100.00
72285;BME280;60220;53.552;10.092;2024-01-06T03:17:43;100355.22;;;1.18;100.00
72285;BME280;60220;53.552;10.092;2024-01-06T03:20:10;100346.97;;;1.40;100.00
72285;BME280;60220;53.552;10.092;2024-01-06T03:22:36;100353.16;;;1.48;100.00
72285;BME280;60220;53.552;10.092;2024-01-06T03:25:04;100356.75;;;1.56;100.00
72285;BME280;60220;53.552;10.092;2024-01-06T03:27:31;100360.47;;;1.72;100.00
72285;BME280;60220;53.552;10.092;2024-01-06T03:30:01;100350.09;;;1.72;100.00
72285;BME280;60220;53.552;10.092;2024-01-06T03:32:30;100349.91;;;1.12;100.00
72285;BME280;60220;53.552;10.092;2024-01-06T03:34:56;100349.91;;;1.60;100.00
72285;BME280;60220;53.552;10.092;2024-01-06T03:37:25;100352.09;;;1.37;100.00
72285;BME280;60220;53.552;10.092;2024-01-06T03:39:54;100355.38;;;1.27;100.00
72285;BME280;60220;53.552;10.092;2024-01-06T03:42:23;100356.97;;;1.20;100.00
72285;BME280;60220;53.552;10.092;2024-01-06T03:44:50;100366.69;;;1.34;100.00
72285;BME280;60220;53.552;10.092;2024-01-06T03:47:16;100361.72;;;1.46;100.00
72285;BME280;60220;53.552;10.092;2024-01-06T03:49:44;100369.50;;;1.46;100.00
72285;BME280;60220;53.552;10.092;2024-01-06T03:52:11;100374.53;;;1.40;100.00
72285;BME280;60220;53.552;10.092;2024-01-06T03:54:39;100369.88;;;1.19;100.00
72285;BME280;60220;53.552;10.092;2024-01-06T03:57:08;100377.22;;;1.43;100.00
72285;BME280;60220;53.552;10.092;2024-01-06T03:59:35;100386.78;;;1.48;100.00
72285;BME280;60220;53.552;10.092;2024-01-06T04:02:04;100387.38;;;1.34;100.00
72285;BME280;60220;53.552;10.092;2024-01-06T04:04:30;100391.00;;;1.43;100.00
72285;BME280;60220;53.552;10.092;2024-01-06T04:06:58;100398.69;;;1.40;100.00
72285;BME280;60220;53.552;10.092;2024-01-06T04:09:26;100394.66;;;1.56;100.00
72285;BME280;60220;53.552;10.092;2024-01-06T04:11:53;100407.06;;;1.27;100.00
72285;BME280;60220;53.552;10.092;2024-01-06T04:14:20;100399.56;;;1.89;100.00
72285;BME280;60220;53.552;10.092;2024-01-06T04:16:49;100404.06;;;1.04;100.00
72285;BME280;60220;53.552;10.092;2024-01-06T04:19:15;100410.75;;;1.40;100.00
72285;BME280;60220;53.552;10.092;2024-01-06T04:21:42;100409.94;;;1.92;100.00
72285;BME280;60220;53.552;10.092;2024-01-06T04:24:10;100409.31;;;1.54;100.00
72285;BME280;60220;53.552;10.092;2024-01-06T04:26:37;100413.41;;;1.92;100.00
72285;BME280;60220;53.552;10.092;2024-01-06T04:29:04;100410.41;;;1.68;100.00
72285;BME280;60220;53.552;10.092;2024-01-06T04:31:30;100414.66;;;1.64;100.00
72285;BME280;60220;53.552;10.092;2024-01-06T04:33:57;100409.50;;;1.66;100.00
72285;BME280;60220;53.552;10.092;2024-01-06T04:36:23;100416.84;;;1.42;100.00
72285;BME280;60220;53.552;10.092;2024-01-06T04:38:50;100411.47;;;1.79;100.00
72285;BME280;60220;53.552;10.092;2024-01-06T04:41:21;100416.44;;;1.67;100.00
72285;BME280;60220;53.552;10.092;2024-01-06T04:43:47;100422.72;;;1.33;100.00
72285;BME280;60220;53.552;10.092;2024-01-06T04:46:14;100430.44;;;1.78;100.00
72285;BME280;60220;53.552;10.092;2024-01-06T04:48:41;100431.72;;;1.55;100.00
72285;BME280;60220;53.552;10.092;2024-01-06T04:51:09;100437.84;;;1.13;100.00
72285;BME280;60220;53.552;10.092;2024-01-06T04:53:36;100446.69;;;1.71;100.00
72285;BME280;60220;53.552;10.092;2024-01-06T04:56:03;100446.22;;;1.47;100.00
72285;BME280;60220;53.552;10.092;2024-01-06T04:58:31;100462.66;;;1.49;100.00
72285;BME280;60220;53.552;10.092;2024-01-06T05:01:00;100457.03;;;1.71;100.00
72285;BME280;60220;53.552;10.092;2024-01-06T05:03:27;100460.25;;;1.58;100.00
72285;BME280;60220;53.552;10.092;2024-01-06T05:05:54;100455.75;;;1.48;100.00
72285;BME280;60220;53.552;10.092;2024-01-06T05:08:21;100456.34;;;1.81;100.00
72285;BME280;60220;53.552;10.092;2024-01-06T05:10:52;100462.78;;;1.11;100.00
72285;BME280;60220;53.552;10.092;2024-01-06T05:13:19;100457.13;;;1.30;100.00
72285;BME280;60220;53.552;10.092;2024-01-06T05:15:47;100456.25;;;1.30;100.00
72285;BME280;60220;53.552;10.092;2024-01-06T05:18:14;100459.03;;;1.39;100.00
72285;BME280;60220;53.552;10.092;2024-01-06T05:20:43;100464.19;;;1.84;100.00
72285;BME280;60220;53.552;10.092;2024-01-06T05:23:10;100472.22;;;1.11;100.00
72285;BME280;60220;53.552;10.092;2024-01-06T05:25:36;100466.59;;;1.30;100.00
72285;BME280;60220;53.552;10.092;2024-01-06T05:28:04;100467.25;;;1.18;100.00
72285;BME280;60220;53.552;10.092;2024-01-06T05:30:30;100479.47;;;1.27;100.00
72285;BME280;60220;53.552;10.092;2024-01-06T05:32:58;100476.34;;;1.43;100.00
72285;BME280;60220;53.552;10.092;2024-01-06T05:35:27;100473.06;;;1.52;100.00
72285;BME280;60220;53.552;10.092;2024-01-06T05:37:54;100483.94;;;1.36;100.00
72285;BME280;60220;53.552;10.092;2024-01-06T05:40:23;100481.13;;;1.23;100.00
72285;BME280;60220;53.552;10.092;2024-01-06T05:42:52;100491.41;;;1.64;100.00
72285;BME280;60220;53.552;10.092;2024-01-06T05:45:21;100488.81;;;1.65;100.00
72285;BME280;60220;53.552;10.092;2024-01-06T05:47:48;100501.91;;;1.73;100.00
72285;BME280;60220;53.552;10.092;2024-01-06T05:50:16;100503.63;;;2.21;100.00
72285;BME280;60220;53.552;10.092;2024-01-06T05:52:43;100511.06;;;1.56;100.00
72285;BME280;60220;53.552;10.092;2024-01-06T05:55:10;100511.16;;;1.17;100.00
72285;BME280;60220;53.552;10.092;2024-01-06T05:57:37;100523.31;;;1.22;100.00
72285;BME280;60220;53.552;10.092;2024-01-06T06:00:06;100521.50;;;1.60;100.00
72285;BME280;60220;53.552;10.092;2024-01-06T06:02:34;100532.19;;;1.34;100.00
72285;BME280;60220;53.552;10.092;2024-01-06T06:05:00;100544.88;;;1.63;100.00
72285;BME280;60220;53.552;10.092;2024-01-06T06:07:28;100545.59;;;1.58;100.00
72285;BME280;60220;53.552;10.092;2024-01-06T06:09:55;100554.34;;;1.22;100.00
72285;BME280;60220;53.552;10.092;2024-01-06T06:12:21;100553.53;;;1.23;100.00
72285;BME280;60220;53.552;10.092;2024-01-06T06:14:48;100557.03;;;1.27;100.00
72285;BME280;60220;53.552;10.092;2024-01-06T06:17:17;100566.59;;;1.29;100.00
72285;BME280;60220;53.552;10.092;2024-01-06T06:19:44;100565.72;;;1.30;100.00
72285;BME280;60220;53.552;10.092;2024-01-06T06:22:10;100573.59;;;1.77;100.00
72285;BME280;60220;53.552;10.092;2024-01-06T06:24:38;100581.66;;;1.11;100.00
72285;BME280;60220;53.552;10.092;2024-01-06T06:27:06;100590.19;;;1.07;100.00
72285;BME280;60220;53.552;10.092;2024-01-06T06:29:32;100586.38;;;1.71;100.00
72285;BME280;60220;53.552;10.092;2024-01-06T06:31:59;100594.63;;;1.52;100.00
72285;BME280;60220;53.552;10.092;2024-01-06T06:34:26;100590.38;;;1.54;100.00
72285;BME280;60220;53.552;10.092;2024-01-06T06:36:52;100598.34;;;1.25;100.00
72285;BME280;60220;53.552;10.092;2024-01-06T06:39:19;100590.47;;;1.58;100.00
72285;BME280;60220;53.552;10.092;2024-01-06T06:41:47;100604.81;;;1.44;100.00
72285;BME280;60220;53.552;10.092;2024-01-06T06:44:14;100603.91;;;1.03;100.00
72285;BME280;60220;53.552;10.092;2024-01-06T06:46:40;100606.13;;;1.25;100.00
72285;BME280;60220;53.552;10.092;2024-01-06T06:49:07;100609.81;;;1.37;100.00
72285;BME280;60220;53.552;10.092;2024-01-06T06:51:34;100606.63;;;1.50;100.00
72285;BME280;60220;53.552;10.092;2024-01-06T06:54:00;100605.91;;;1.16;100.00
72285;BME280;60220;53.552;10.092;2024-01-06T06:56:27;100616.84;;;1.42;100.00
72285;BME280;60220;53.552;10.092;2024-01-06T06:58:55;100623.16;;;1.56;100.00
72285;BME280;60220;53.552;10.092;2024-01-06T07:01:24;100632.56;;;1.93;100.00
72285;BME280;60220;53.552;10.092;2024-01-06T07:03:51;100642.97;;;1.56;100.00
72285;BME280;60220;53.552;10.092;2024-01-06T07:06:17;100644.38;;;1.81;100.00
72285;BME280;60220;53.552;10.092;2024-01-06T07:08:44;100645.50;;;1.93;100.00
72285;BME280;60220;53.552;10.092;2024-01-06T07:11:10;100649.28;;;2.10;100.00
72285;BME280;60220;53.552;10.092;2024-01-06T07:13:40;100655.78;;;1.90;100.00
72285;BME280;60220;53.552;10.092;2024-01-06T07:16:08;100657.38;;;1.45;100.00
72285;BME280;60220;53.552;10.092;2024-01-06T07:18:35;100663.44;;;1.44;100.00
72285;BME280;60220;53.552;10.092;2024-01-06T07:21:04;100667.53;;;1.36;100.00
72285;BME280;60220;53.552;10.092;2024-01-06T07:23:31;100665.69;;;1.30;100.00
72285;BME280;60220;53.552;10.092;2024-01-06T07:25:58;100672.91;;;1.45;100.00
72285;BME280;60220;53.552;10.092;2024-01-06T07:28:25;100672.31;;;1.97;100.00
72285;BME280;60220;53.552;10.092;2024-01-06T07:30:52;100677.38;;;1.52;100.00
72285;BME280;60220;53.552;10.092;2024-01-06T07:33:21;100674.31;;;1.29;100.00
72285;BME280;60220;53.552;10.092;2024-01-06T07:35:48;100674.84;;;1.55;100.00
72285;BME280;60220;53.552;10.092;2024-01-06T07:38:17;100679.91;;;1.11;100.00
72285;BME280;60220;53.552;10.092;2024-01-06T07:40:44;100682.75;;;1.61;100.00
72285;BME280;60220;53.552;10.092;2024-01-06T07:43:13;100696.63;;;1.63;100.00
72285;BME280;60220;53.552;10.092;2024-01-06T07:45:43;100696.47;;;1.57;100.00
72285;BME280;60220;53.552;10.092;2024-01-06T07:48:12;100691.31;;;1.57;100.00
72285;BME280;60220;53.552;10.092;2024-01-06T07:50:40;100699.53;;;1.41;100.00
72285;BME280;60220;53.552;10.092;2024-01-06T07:53:06;100704.69;;;0.69;100.00
72285;BME280;60220;53.552;10.092;2024-01-06T07:55:34;100709.53;;;1.25;100.00
72285;BME280;60220;53.552;10.092;2024-01-06T07:58:00;100712.16;;;1.27;100.00
72285;BME280;60220;53.552;10.092;2024-01-06T08:00:27;100715.06;;;1.78;100.00
72285;BME280;60220;53.552;10.092;2024-01-06T08:02:54;100721.63;;;1.26;100.00
72285;BME280;60220;53.552;10.092;2024-01-06T08:05:21;100728.75;;;1.37;100.00
72285;BME280;60220;53.552;10.092;2024-01-06T08:07:51;100735.31;;;1.97;100.00
72285;BME280;60220;53.552;10.092;2024-01-06T08:10:20;100737.28;;;1.33;100.00
72285;BME280;60220;53.552;10.092;2024-01-06T08:12:47;100740.03;;;1.39;100.00
72285;BME280;60220;53.552;10.092;2024-01-06T08:15:13;100744.22;;;2.10;100.00
72285;BME280;60220;53.552;10.092;2024-01-06T08:17:40;100750.03;;;1.25;100.00
72285;BME280;60220;53.552;10.092;2024-01-06T08:20:07;100757.97;;;1.33;100.00
72285;BME280;60220;53.552;10.092;2024-01-06T08:22:34;100759.28;;;0.82;100.00
72285;BME280;60220;53.552;10.092;2024-01-06T08:25:03;100769.56;;;1.84;100.00
72285;BME280;60220;53.552;10.092;2024-01-06T08:27:31;100770.47;;;1.50;100.00
72285;BME280;60220;53.552;10.092;2024-01-06T08:30:00;100780.09;;;1.93;100.00
72285;BME280;60220;53.552;10.092;2024-01-06T08:32:27;100780.25;;;1.27;100.00
72285;BME280;60220;53.552;10.092;2024-01-06T08:34:56;100779.38;;;1.27;100.00
72285;BME280;60220;53.552;10.092;2024-01-06T08:37:23;100792.50;;;1.35;100.00
72285;BME280;60220;53.552;10.092;2024-01-06T08:39:49;100798.69;;;1.41;100.00
72285;BME280;60220;53.552;10.092;2024-01-06T08:42:17;100806.31;;;1.71;100.00
72285;BME280;60220;53.552;10.092;2024-01-06T08:44:44;100804.34;;;1.59;100.00
72285;BME280;60220;53.552;10.092;2024-01-06T08:47:11;100804.28;;;1.95;100.00
72285;BME280;60220;53.552;10.092;2024-01-06T08:49:38;100815.78;;;1.69;100.00
72285;BME280;60220;53.552;10.092;2024-01-06T08:52:05;100819.53;;;1.47;100.00
72285;BME280;60220;53.552;10.092;2024-01-06T08:54:32;100824.66;;;2.17;100.00
72285;BME280;60220;53.552;10.092;2024-01-06T08:56:59;100835.09;;;1.83;100.00
72285;BME280;60220;53.552;10.092;2024-01-06T08:59:27;100835.03;;;1.46;100.00
72285;BME280;60220;53.552;10.092;2024-01-06T09:01:53;100838.31;;;1.39;100.00
72285;BME280;60220;53.552;10.092;2024-01-06T09:04:24;100839.41;;;1.48;100.00
72285;BME280;60220;53.552;10.092;2024-01-06T09:06:50;100852.91;;;1.05;100.00
72285;BME280;60220;53.552;10.092;2024-01-06T09:09:17;100843.00;;;1.55;100.00
72285;BME280;60220;53.552;10.092;2024-01-06T09:11:44;100849.63;;;1.44;100.00
72285;BME280;60220;53.552;10.092;2024-01-06T09:14:16;100848.91;;;1.85;100.00
72285;BME280;60220;53.552;10.092;2024-01-06T09:16:44;100855.94;;;1.89;100.00
72285;BME280;60220;53.552;10.092;2024-01-06T09:19:13;100859.72;;;2.03;100.00
72285;BME280;60220;53.552;10.092;2024-01-06T09:21:39;100855.78;;;2.21;100.00
72285;BME280;60220;53.552;10.092;2024-01-06T09:24:07;100857.38;;;2.14;100.00
72285;BME280;60220;53.552;10.092;2024-01-06T09:26:34;100866.56;;;2.01;100.00
72285;BME280;60220;53.552;10.092;2024-01-06T09:29:00;100866.28;;;2.27;100.00
72285;BME280;60220;53.552;10.092;2024-01-06T09:31:28;100873.91;;;1.83;100.00
72285;BME280;60220;53.552;10.092;2024-01-06T09:34:01;100878.59;;;1.99;100.00
72285;BME280;60220;53.552;10.092;2024-01-06T09:36:28;100887.91;;;1.91;100.00
72285;BME280;60220;53.552;10.092;2024-01-06T09:38:55;100900.88;;;1.58;100.00
72285;BME280;60220;53.552;10.092;2024-01-06T09:41:21;100903.25;;;1.18;100.00
72285;BME280;60220;53.552;10.092;2024-01-06T09:43:51;100899.91;;;1.53;100.00
72285;BME280;60220;53.552;10.092;2024-01-06T09:46:22;100903.84;;;2.09;100.00
72285;BME280;60220;53.552;10.092;2024-01-06T09:48:51;100902.44;;;1.86;100.00
72285;BME280;60220;53.552;10.092;2024-01-06T09:51:23;100917.84;;;1.47;100.00
72285;BME280;60220;53.552;10.092;2024-01-06T09:53:55;100913.00;;;1.59;100.00
72285;BME280;60220;53.552;10.092;2024-01-06T09:56:24;100918.31;;;1.33;100.00
72285;BME280;60220;53.552;10.092;2024-01-06T09:58:51;100921.63;;;0.97;100.00
72285;BME280;60220;53.552;10.092;2024-01-06T10:01:17;100905.47;;;1.70;100.00
72285;BME280;60220;53.552;10.092;2024-01-06T10:03:44;100911.94;;;2.22;100.00
72285;BME280;60220;53.552;10.092;2024-01-06T10:06:12;100915.75;;;2.01;100.00
72285;BME280;60220;53.552;10.092;2024-01-06T10:08:42;100916.88;;;1.77;100.00
72285;BME280;60220;53.552;10.092;2024-01-06T10:11:08;100925.72;;;1.52;100.00
72285;BME280;60220;53.552;10.092;2024-01-06T10:13:36;100929.41;;;1.61;100.00
72285;BME280;60220;53.552;10.092;2024-01-06T10:16:04;100936.13;;;1.55;100.00
72285;BME280;60220;53.552;10.092;2024-01-06T10:18:32;100939.88;;;1.35;100.00
72285;BME280;60220;53.552;10.092;2024-01-06T10:21:03;100945.06;;;1.35;100.00
72285;BME280;60220;53.552;10.092;2024-01-06T10:23:31;100940.59;;;1.60;100.00
72285;BME280;60220;53.552;10.092;2024-01-06T10:25:59;100935.84;;;1.77;100.00
72285;BME280;60220;53.552;10.092;2024-01-06T10:28:27;100949.22;;;1.61;100.00
72285;BME280;60220;53.552;10.092;2024-01-06T10:30:54;100943.16;;;1.59;100.00
72285;BME280;60220;53.552;10.092;2024-01-06T10:33:22;100940.38;;;1.84;100.00
72285;BME280;60220;53.552;10.092;2024-01-06T10:35:49;100949.69;;;1.46;100.00
72285;BME280;60220;53.552;10.092;2024-01-06T10:38:16;100943.28;;;1.98;100.00
72285;BME280;60220;53.552;10.092;2024-01-06T10:40:56;100952.53;;;2.23;100.00
72285;BME280;60220;53.552;10.092;2024-01-06T10:43:26;100955.34;;;1.63;100.00
72285;BME280;60220;53.552;10.092;2024-01-06T10:45:55;100954.31;;;1.91;100.00
72285;BME280;60220;53.552;10.092;2024-01-06T10:48:24;100957.81;;;1.58;100.00
72285;BME280;60220;53.552;10.092;2024-01-06T10:50:55;100955.63;;;1.73;100.00
72285;BME280;60220;53.552;10.092;2024-01-06T10:53:21;100967.84;;;1.81;100.00
72285;BME280;60220;53.552;10.092;2024-01-06T10:55:49;100966.84;;;1.43;100.00
72285;BME280;60220;53.552;10.092;2024-01-06T10:58:17;100970.44;;;1.48;100.00
72285;BME280;60220;53.552;10.092;2024-01-06T11:00:45;100967.03;;;1.50;100.00
72285;BME280;60220;53.552;10.092;2024-01-06T11:03:14;100966.88;;;1.76;100.00
72285;BME280;60220;53.552;10.092;2024-01-06T11:05:41;100968.13;;;1.27;100.00
72285;BME280;60220;53.552;10.092;2024-01-06T11:08:08;100967.75;;;1.45;100.00
72285;BME280;60220;53.552;10.092;2024-01-06T11:10:36;100970.22;;;1.09;100.00
72285;BME280;60220;53.552;10.092;2024-01-06T11:13:08;100970.09;;;1.36;100.00
72285;BME280;60220;53.552;10.092;2024-01-06T11:15:40;100965.06;;;1.09;100.00
72285;BME280;60220;53.552;10.092;2024-01-06T11:18:08;100962.66;;;1.16;100.00
72285;BME280;60220;53.552;10.092;2024-01-06T11:20:34;100965.09;;;1.42;100.00
72285;BME280;60220;53.552;10.092;2024-01-06T11:23:18;100958.03;;;1.67;100.00
72285;BME280;60220;53.552;10.092;2024-01-06T11:25:46;100964.63;;;1.56;100.00
72285;BME280;60220;53.552;10.092;2024-01-06T11:28:12;100962.75;;;1.49;100.00
72285;BME280;60220;53.552;10.092;2024-01-06T11:30:39;100966.94;;;1.46;100.00
72285;BME280;60220;53.552;10.092;2024-01-06T11:33:09;100958.91;;;1.05;100.00
72285;BME280;60220;53.552;10.092;2024-01-06T11:35:37;100967.25;;;1.26;100.00
72285;BME280;60220;53.552;10.092;2024-01-06T11:38:06;100964.44;;;1.49;100.00
72285;BME280;60220;53.552;10.092;2024-01-06T11:40:34;100962.66;;;1.79;100.00
72285;BME280;60220;53.552;10.092;2024-01-06T11:43:03;100963.06;;;1.94;100.00
72285;BME280;60220;53.552;10.092;2024-01-06T11:45:31;100970.03;;;1.64;100.00
72285;BME280;60220;53.552;10.092;2024-01-06T11:47:59;100962.47;;;2.06;100.00
72285;BME280;60220;53.552;10.092;2024-01-06T11:50:29;100962.97;;;1.91;100.00
72285;BME280;60220;53.552;10.092;2024-01-06T11:52:56;100960.28;;;2.23;100.00
72285;BME280;60220;53.552;10.092;2024-01-06T11:55:25;100963.41;;;2.45;100.00
72285;BME280;60220;53.552;10.092;2024-01-06T11:57:53;100980.38;;;1.33;100.00
72285;BME280;60220;53.552;10.092;2024-01-06T12:00:20;100968.69;;;1.80;100.00
72285;BME280;60220;53.552;10.092;2024-01-06T12:02:49;100977.44;;;1.52;100.00
72285;BME280;60220;53.552;10.092;2024-01-06T12:05:17;100973.03;;;1.48;100.00
72285;BME280;60220;53.552;10.092;2024-01-06T12:07:55;100973.97;;;1.83;100.00
72285;BME280;60220;53.552;10.092;2024-01-06T12:10:23;100968.84;;;2.19;100.00
72285;BME280;60220;53.552;10.092;2024-01-06T12:12:57;100982.28;;;1.10;100.00
72285;BME280;60220;53.552;10.092;2024-01-06T12:15:25;100972.53;;;1.95;100.00
72285;BME280;60220;53.552;10.092;2024-01-06T12:17:51;100977.84;;;2.00;100.00
72285;BME280;60220;53.552;10.092;2024-01-06T12:20:18;100982.47;;;2.11;100.00
72285;BME280;60220;53.552;10.092;2024-01-06T12:22:45;100987.84;;;2.21;100.00
72285;BME280;60220;53.552;10.092;2024-01-06T12:25:14;100992.44;;;1.65;100.00
72285;BME280;60220;53.552;10.092;2024-01-06T12:27:42;101002.13;;;1.41;100.00
72285;BME280;60220;53.552;10.092;2024-01-06T12:30:13;101005.72;;;1.77;100.00
72285;BME280;60220;53.552;10.092;2024-01-06T12:32:46;101000.56;;;1.77;100.00
72285;BME280;60220;53.552;10.092;2024-01-06T12:35:14;101002.84;;;1.66;100.00
72285;BME280;60220;53.552;10.092;2024-01-06T12:37:41;101009.44;;;1.55;100.00
72285;BME280;60220;53.552;10.092;2024-01-06T12:40:12;101005.91;;;1.83;100.00
72285;BME280;60220;53.552;10.092;2024-01-06T12:42:40;101006.25;;;1.65;100.00